createdAt,value
2017-03-22T05:37:26.261Z,1013.89
2017-03-22T05:38:26.283Z,1013.83
2017-03-22T05:39:26.467Z,1013.91
2017-03-22T05:40:26.375Z,1013.95
2017-03-22T05:41:26.405Z,1013.94
2017-03-22T05:42:26.468Z,1013.94
2017-03-22T05:43:26.487Z,1013.96
2017-03-22T05:44:26.444Z,1013.93
2017-03-22T05:45:26.463Z,1013.99
2017-03-22T05:46:26.500Z,1013.97
2017-03-22T05:47:26.554Z,1014.02
2017-03-22T05:48:26.546Z,1014.02
2017-03-22T05:49:26.573Z,1014.03
2017-03-22T05:50:26.603Z,1014.02
2017-03-22T05:51:26.687Z,1014.03
2017-03-22T05:52:26.719Z,1014.05
2017-03-22T05:53:26.759Z,1014.1
2017-03-22T05:54:26.731Z,1014.1
2017-03-22T05:55:26.720Z,1014.06
2017-03-22T05:56:26.783Z,1014.08
2017-03-22T05:57:26.773Z,1014.07
2017-03-22T05:58:26.809Z,1014.1
2017-03-22T05:59:26.824Z,1014.08
2017-03-22T06:00:26.861Z,1014.06
2017-03-22T06:01:26.961Z,1014.07
2017-03-22T06:02:26.981Z,1014.03
2017-03-22T06:03:26.983Z,1014
2017-03-22T06:04:26.961Z,1013.99
2017-03-22T06:05:26.991Z,1013.98
2017-03-22T06:06:27.019Z,1014.04
2017-03-22T06:07:27.037Z,1013.97
2017-03-22T06:08:27.098Z,1014.01
2017-03-22T06:09:27.092Z,1014
2017-03-22T06:10:27.152Z,1014.04
2017-03-22T06:11:27.140Z,1014.06
2017-03-22T06:12:27.174Z,1014.02
2017-03-22T06:13:27.204Z,1014.01
2017-03-22T06:14:27.256Z,1014.07
2017-03-22T06:15:27.254Z,1014.03
2017-03-22T06:16:27.338Z,1014.11
2017-03-22T06:17:27.370Z,1014.09
2017-03-22T06:18:27.409Z,1014.09
2017-03-22T06:19:27.361Z,1014.07
2017-03-22T06:20:27.392Z,1014.1
2017-03-22T06:21:27.413Z,1014.09
2017-03-22T06:22:27.440Z,1014.1
2017-03-22T06:23:27.503Z,1014.09
2017-03-22T06:24:27.527Z,1014.11
2017-03-22T06:25:27.566Z,1014.11
2017-03-22T06:26:27.610Z,1014.1
2017-03-22T06:27:27.649Z,1014.1
2017-03-22T06:28:27.657Z,1014.08
2017-03-22T06:29:27.669Z,1014.12
2017-03-22T06:30:27.809Z,1014.14
2017-03-22T06:31:27.693Z,1014.16
2017-03-22T06:32:27.721Z,1014.16
2017-03-22T06:33:27.747Z,1014.14
2017-03-22T06:34:27.776Z,1014.2
2017-03-22T06:35:27.806Z,1014.19
2017-03-22T06:36:27.901Z,1014.21
2017-03-22T06:37:27.925Z,1014.19
2017-03-22T06:38:27.946Z,1014.24
2017-03-22T06:39:27.901Z,1014.24
2017-03-22T06:40:27.967Z,1014.31
2017-03-22T06:41:27.966Z,1014.29
2017-03-22T06:42:27.987Z,1014.36
2017-03-22T06:43:28.052Z,1014.36
2017-03-22T06:44:28.047Z,1014.34
2017-03-22T06:45:28.107Z,1014.39
2017-03-22T06:46:28.105Z,1014.38
2017-03-22T06:47:28.161Z,1014.49
2017-03-22T06:48:28.158Z,1014.59
2017-03-22T06:49:28.179Z,1014.67
2017-03-22T06:50:28.271Z,1014.72
2017-03-22T06:51:28.302Z,1014.58
2017-03-22T06:52:28.343Z,1014.49
2017-03-22T06:53:28.373Z,1014.54
2017-03-22T06:54:28.331Z,1014.55
2017-03-22T06:55:28.356Z,1014.67
2017-03-22T06:56:28.386Z,1014.67
2017-03-22T06:57:28.415Z,1014.67
2017-03-22T06:58:28.442Z,1014.74
2017-03-22T06:59:28.500Z,1014.79
2017-03-22T07:00:28.497Z,1014.7
2017-03-22T07:01:28.561Z,1014.8
2017-03-22T07:02:28.547Z,1014.93
2017-03-22T07:03:28.582Z,1014.98
2017-03-22T07:04:28.613Z,1015.12
2017-03-22T07:05:28.705Z,1015.19
2017-03-22T07:06:28.763Z,1015.41
2017-03-22T07:07:28.768Z,1015.45
2017-03-22T07:08:28.808Z,1015.46
2017-03-22T07:09:28.769Z,1015.32
2017-03-22T07:10:28.787Z,1015.51
2017-03-22T07:11:28.831Z,1015.47
2017-03-22T07:12:28.858Z,1015.53
2017-03-22T07:13:28.880Z,1015.45
2017-03-22T07:14:28.930Z,1015.67
2017-03-22T07:15:28.977Z,1015.69
2017-03-22T07:16:29.072Z,1015.31
2017-03-22T07:17:29.018Z,1015.38
2017-03-22T07:18:29.075Z,1015.39
2017-03-22T07:19:29.077Z,1015.33
2017-03-22T07:20:29.149Z,1015.25
2017-03-22T07:21:29.164Z,1015.16
2017-03-22T07:22:29.251Z,1015.23
2017-03-22T07:23:29.277Z,1015.27
2017-03-22T07:24:29.234Z,1015.15
2017-03-22T07:25:29.272Z,1015.3
2017-03-22T07:26:29.309Z,1015.28
2017-03-22T07:27:29.339Z,1015.15
2017-03-22T07:28:29.374Z,1015.39
2017-03-22T07:29:29.407Z,1015.35
2017-03-22T07:30:29.470Z,1015.46
2017-03-22T07:31:29.513Z,1015.63
2017-03-22T07:32:29.503Z,1015.97
2017-03-22T07:33:29.606Z,1015.94
2017-03-22T07:34:29.635Z,1015.8
2017-03-22T07:35:29.604Z,1015.92
2017-03-22T07:36:29.636Z,1015.98
2017-03-22T07:37:29.665Z,1016.02
2017-03-22T07:38:29.697Z,1016.26
2017-03-22T07:39:29.727Z,1016.34
2017-03-22T07:40:29.846Z,1016.48
2017-03-22T07:41:29.838Z,1016.43
2017-03-22T07:42:29.844Z,1016.3
2017-03-22T07:43:29.944Z,1016.27
2017-03-22T07:44:29.899Z,1016.2
2017-03-22T07:45:29.941Z,1016.31
2017-03-22T07:46:29.976Z,1016.24
2017-03-22T07:47:30.039Z,1016.45
2017-03-22T07:48:30.041Z,1016.39
2017-03-22T07:49:30.101Z,1016.42
2017-03-22T07:50:30.161Z,1016.17
2017-03-22T07:51:30.223Z,1016.04
2017-03-22T07:52:30.240Z,1016.14
2017-03-22T07:53:30.292Z,1016.13
2017-03-22T07:54:30.254Z,1016.21
2017-03-22T07:55:30.295Z,1016.23
2017-03-22T07:56:30.334Z,1016.39
2017-03-22T07:57:30.395Z,1016.39
2017-03-22T07:58:30.397Z,1016.4
2017-03-22T07:59:30.471Z,1016.27
2017-03-22T08:00:30.509Z,1016.35
2017-03-22T08:01:30.512Z,1016.43
2017-03-22T08:02:30.582Z,1016.48
2017-03-22T08:03:30.617Z,1016.54
2017-03-22T08:04:30.624Z,1016.51
2017-03-22T08:05:30.730Z,1016.6
2017-03-22T08:06:30.773Z,1016.54
2017-03-22T08:07:30.806Z,1016.57
2017-03-22T08:08:30.846Z,1016.54
2017-03-22T08:09:30.847Z,1016.48
2017-03-22T08:10:30.863Z,1016.41
2017-03-22T08:11:30.894Z,1016.43
2017-03-22T08:12:30.941Z,1016.42
2017-03-22T08:13:30.976Z,1016.34
2017-03-22T08:14:31.024Z,1016.37
2017-03-22T08:15:31.110Z,1016.37
2017-03-22T08:16:31.141Z,1016.39
2017-03-22T08:17:31.197Z,1016.35
2017-03-22T08:18:31.235Z,1016.33
2017-03-22T08:19:31.211Z,1016.31
2017-03-22T08:20:31.286Z,1016.28
2017-03-22T08:21:31.300Z,1016.21
2017-03-22T08:22:31.368Z,1016.24
2017-03-22T08:23:31.387Z,1016.26
2017-03-22T08:24:31.412Z,1016.17
2017-03-22T08:25:31.458Z,1016.18
2017-03-22T08:26:31.539Z,1016.15
2017-03-22T08:27:31.623Z,1016.15
2017-03-22T08:28:31.587Z,1016.12
2017-03-22T08:29:31.704Z,1016.12
2017-03-22T08:30:31.668Z,1016.07
2017-03-22T08:31:31.850Z,1016.07
2017-03-22T08:32:31.750Z,1016.15
2017-03-22T08:33:31.791Z,1016.08
2017-03-22T08:34:31.830Z,1016.05
2017-03-22T08:35:31.875Z,1016.11
2017-03-22T08:36:31.918Z,1016.12
2017-03-22T08:37:32.003Z,1016.15
2017-03-22T08:38:32.046Z,1016.15
2017-03-22T08:39:32.101Z,1016.16
2017-03-22T08:40:32.072Z,1016.18
2017-03-22T08:41:32.120Z,1016.1
2017-03-22T08:42:32.164Z,1016.11
2017-03-22T08:43:32.207Z,1016.05
2017-03-22T08:44:32.252Z,1016.02
2017-03-22T08:45:32.296Z,1016.04
2017-03-22T08:46:32.411Z,1016.02
2017-03-22T08:47:32.430Z,1016
2017-03-22T08:48:32.488Z,1016.04
2017-03-22T08:49:32.447Z,1016.11
2017-03-22T08:50:32.503Z,1016.01
2017-03-22T08:51:32.538Z,1015.95
2017-03-22T08:52:32.614Z,1015.99
2017-03-22T08:53:32.634Z,1015.97
2017-03-22T08:54:32.671Z,1016.01
2017-03-22T08:55:32.744Z,1015.94
2017-03-22T08:56:32.756Z,1015.97
2017-03-22T08:57:32.862Z,1015.95
2017-03-22T08:58:32.838Z,1015.96
2017-03-22T08:59:32.918Z,1015.99
2017-03-22T09:00:32.927Z,1015.93
2017-03-22T09:01:32.961Z,1015.97
2017-03-22T09:02:33.004Z,1015.86
2017-03-22T09:03:33.054Z,1015.85
2017-03-22T09:04:33.098Z,1015.92
2017-03-22T09:05:33.170Z,1015.89
2017-03-22T09:06:33.239Z,1015.91
2017-03-22T09:07:33.288Z,1015.89
2017-03-22T09:08:33.322Z,1015.81
2017-03-22T09:09:33.304Z,1015.85
2017-03-22T09:10:33.344Z,1015.93
2017-03-22T09:11:33.386Z,1015.97
2017-03-22T09:12:33.461Z,1016.07
2017-03-22T09:13:33.481Z,1016.07
2017-03-22T09:14:33.551Z,1016.06
2017-03-22T09:15:33.564Z,1015.96
2017-03-22T09:16:33.619Z,1016.12
2017-03-22T09:17:33.703Z,1016.11
2017-03-22T09:18:33.755Z,1016.16
2017-03-22T09:19:33.740Z,1016.19
2017-03-22T09:20:33.809Z,1016.2
2017-03-22T09:21:33.811Z,1016.25
2017-03-22T09:22:33.884Z,1016.28
2017-03-22T09:23:33.912Z,1016.34
2017-03-22T09:24:33.951Z,1016.38
2017-03-22T09:25:33.999Z,1016.42
2017-03-22T09:26:34.044Z,1016.39
2017-03-22T09:27:34.086Z,1016.42
2017-03-22T09:28:34.130Z,1016.48
2017-03-22T09:29:34.167Z,1016.41
2017-03-22T09:30:34.254Z,1016.39
2017-03-22T09:31:34.324Z,1016.39
2017-03-22T09:32:34.342Z,1016.45
2017-03-22T09:33:34.377Z,1016.46
2017-03-22T09:34:34.421Z,1016.4
2017-03-22T09:35:34.477Z,1016.41
2017-03-22T09:36:34.477Z,1016.17
2017-03-22T09:37:34.555Z,1016.28
2017-03-22T09:38:34.562Z,1016.38
2017-03-22T09:39:34.630Z,1016.38
2017-03-22T09:40:34.677Z,1016.37
2017-03-22T09:41:34.745Z,1016.37
2017-03-22T09:42:34.831Z,1016.06
2017-03-22T09:43:34.859Z,1016.34
2017-03-22T09:44:34.841Z,1016.41
2017-03-22T09:45:34.910Z,1016.32
2017-03-22T09:46:34.926Z,1016.41
2017-03-22T09:47:34.970Z,1016.5
2017-03-22T09:48:35.015Z,1016.56
2017-03-22T09:49:35.057Z,1016.44
2017-03-22T09:50:35.107Z,1016.1
2017-03-22T09:51:35.150Z,1016.49
2017-03-22T09:52:35.191Z,1016.35
2017-03-22T09:53:35.241Z,1016.66
2017-03-22T09:54:35.280Z,1016.62
2017-03-22T09:55:35.378Z,1016.31
2017-03-22T09:56:35.453Z,1016.76
2017-03-22T09:57:35.484Z,1016.76
2017-03-22T09:58:35.530Z,1016.58
2017-03-22T09:59:35.490Z,1016.67
2017-03-22T10:00:35.541Z,1016.63
2017-03-22T10:01:35.580Z,1016.57
2017-03-22T10:02:35.621Z,1016.75
2017-03-22T10:03:35.671Z,1016.83
2017-03-22T10:04:35.740Z,1016.52
2017-03-22T10:05:35.788Z,1016.77
2017-03-22T10:06:35.801Z,1016.88
2017-03-22T10:07:35.870Z,1016.91
2017-03-22T10:08:35.874Z,1016.9
2017-03-22T10:09:35.926Z,1016.81
2017-03-22T10:10:35.968Z,1016.84
2017-03-22T10:11:36.035Z,1016.78
2017-03-22T10:12:36.114Z,1016.61
2017-03-22T10:13:36.166Z,1016.57
2017-03-22T10:14:36.173Z,1016.63
2017-03-22T10:15:36.167Z,1016.69
2017-03-22T10:16:36.217Z,1016.7
2017-03-22T10:17:36.283Z,1016.28
2017-03-22T10:18:36.301Z,1016.97
2017-03-22T10:19:36.337Z,1016.95
2017-03-22T10:20:36.375Z,1016.93
2017-03-22T10:21:36.428Z,1016.95
2017-03-22T10:22:36.492Z,1016.93
2017-03-22T10:23:36.500Z,1016.93
2017-03-22T10:24:36.537Z,1016.91
2017-03-22T10:25:36.576Z,1016.89
2017-03-22T10:26:36.617Z,1016.84
2017-03-22T10:27:36.671Z,1016.82
2017-03-22T10:28:36.714Z,1016.75
2017-03-22T10:29:36.741Z,1016.74
2017-03-22T10:30:36.775Z,1016.6
2017-03-22T10:31:36.821Z,1016.72
2017-03-22T10:32:36.898Z,1016.47
2017-03-22T10:33:36.897Z,1016.76
2017-03-22T10:34:36.970Z,1016.6
2017-03-22T10:35:37.043Z,1016.7
2017-03-22T10:36:37.020Z,1016.8
2017-03-22T10:37:37.106Z,1016.91
2017-03-22T10:38:37.168Z,1016.74
2017-03-22T10:39:37.132Z,1016.94
2017-03-22T10:40:37.204Z,1017.33
2017-03-22T10:41:37.207Z,1017.34
2017-03-22T10:42:37.252Z,1017.36
2017-03-22T10:43:37.289Z,1017.47
2017-03-22T10:44:37.355Z,1017.47
2017-03-22T10:45:37.366Z,1017.45
2017-03-22T10:46:37.396Z,1017.48
2017-03-22T10:47:37.443Z,1017.55
2017-03-22T10:48:37.480Z,1017.71
2017-03-22T10:49:37.516Z,1017.72
2017-03-22T10:50:37.607Z,1017.74
2017-03-22T10:51:37.635Z,1017.78
2017-03-22T10:52:37.703Z,1017.81
2017-03-22T10:53:37.713Z,1017.9
2017-03-22T10:54:37.695Z,1018.05
2017-03-22T10:55:37.737Z,1018.03
2017-03-22T10:56:37.807Z,1017.88
2017-03-22T10:57:37.831Z,1017.93
2017-03-22T10:58:37.848Z,1017.5
2017-03-22T10:59:37.882Z,1016.37
2017-03-22T11:00:37.919Z,1015.91
2017-03-22T11:01:37.957Z,1015.84
2017-03-22T11:02:37.996Z,1015.78
2017-03-22T11:03:38.053Z,1015.79
2017-03-22T11:04:38.081Z,1015.78
2017-03-22T11:05:38.133Z,1015.77
2017-03-22T11:06:38.192Z,1015.78
2017-03-22T11:07:38.213Z,1015.75
2017-03-22T11:08:38.266Z,1015.76
2017-03-22T11:09:38.315Z,1015.71
2017-03-22T11:10:38.281Z,1015.63
2017-03-22T11:11:38.349Z,1015.63
2017-03-22T11:12:38.389Z,1015.61
2017-03-22T11:13:38.399Z,1015.62
2017-03-22T11:14:38.461Z,1015.6
2017-03-22T11:15:38.477Z,1015.69
2017-03-22T11:16:38.506Z,1015.57
2017-03-22T11:17:38.546Z,1015.69
2017-03-22T11:18:38.570Z,1015.6
2017-03-22T11:19:38.613Z,1015.58
2017-03-22T11:20:38.691Z,1015.63
2017-03-22T11:21:38.728Z,1015.61
2017-03-22T11:22:38.756Z,1015.59
2017-03-22T11:23:38.834Z,1015.59
2017-03-22T11:24:38.821Z,1015.58
2017-03-22T11:25:38.826Z,1015.54
2017-03-22T11:26:38.895Z,1015.55
2017-03-22T11:27:38.904Z,1015.53
2017-03-22T11:28:38.937Z,1015.52
2017-03-22T11:29:39.006Z,1015.51
2017-03-22T11:30:39.014Z,1015.49
2017-03-22T11:31:39.048Z,1015.5
2017-03-22T11:32:39.073Z,1015.46
2017-03-22T11:33:39.119Z,1015.44
2017-03-22T11:34:39.152Z,1015.53
2017-03-22T11:35:39.182Z,1015.44
2017-03-22T11:36:39.290Z,1015.42
2017-03-22T11:37:39.337Z,1015.49
2017-03-22T11:38:39.372Z,1015.47
2017-03-22T11:39:39.407Z,1015.46
2017-03-22T11:40:39.359Z,1015.52
2017-03-22T11:41:39.433Z,1015.45
2017-03-22T11:42:39.448Z,1015.46
2017-03-22T11:43:39.478Z,1015.48
2017-03-22T11:44:39.539Z,1015.53
2017-03-22T11:45:39.540Z,1015.53
2017-03-22T11:46:39.576Z,1015.55
2017-03-22T11:47:39.616Z,1015.56
2017-03-22T11:48:39.644Z,1015.61
2017-03-22T11:49:39.713Z,1015.61
2017-03-22T11:50:39.715Z,1015.56
2017-03-22T11:51:39.766Z,1015.64
2017-03-22T11:52:39.789Z,1015.6
2017-03-22T11:53:39.869Z,1015.62
2017-03-22T11:54:39.869Z,1015.65
2017-03-22T11:55:39.883Z,1015.64
2017-03-22T11:56:39.927Z,1015.64
2017-03-22T11:57:39.951Z,1015.6
2017-03-22T11:58:39.984Z,1015.63
2017-03-22T11:59:40.030Z,1015.55
2017-03-22T12:00:40.129Z,1015.57
2017-03-22T12:01:40.145Z,1015.62
2017-03-22T12:02:40.185Z,1015.56
2017-03-22T12:03:40.221Z,1015.58
2017-03-22T12:04:40.197Z,1015.58
2017-03-22T12:05:40.233Z,1015.63
2017-03-22T12:06:40.295Z,1015.62
2017-03-22T12:07:40.303Z,1015.55
2017-03-22T12:08:40.326Z,1015.6
2017-03-22T12:09:40.397Z,1015.55
2017-03-22T12:10:40.400Z,1015.62
2017-03-22T12:11:40.441Z,1015.58
2017-03-22T12:12:40.471Z,1015.63
2017-03-22T12:13:40.510Z,1015.6
2017-03-22T12:14:40.537Z,1015.59
2017-03-22T12:15:40.581Z,1015.56
2017-03-22T12:16:40.682Z,1015.58
2017-03-22T12:17:40.690Z,1015.53
2017-03-22T12:18:40.753Z,1015.53
2017-03-22T12:19:40.767Z,1015.49
2017-03-22T12:20:40.739Z,1015.47
2017-03-22T12:21:40.774Z,1015.44
2017-03-22T12:22:40.821Z,1015.47
2017-03-22T12:23:40.845Z,1015.51
2017-03-22T12:24:40.881Z,1015.48
2017-03-22T12:25:40.911Z,1015.48
2017-03-22T12:26:40.992Z,1015.45
2017-03-22T12:27:41.027Z,1015.44
2017-03-22T12:28:41.081Z,1015.46
2017-03-22T12:29:41.122Z,1015.47
2017-03-22T12:30:41.118Z,1015.49
2017-03-22T12:31:41.116Z,1015.46
2017-03-22T12:32:41.151Z,1015.41
2017-03-22T12:33:41.188Z,1015.36
2017-03-22T12:34:41.228Z,1015.39
2017-03-22T12:35:41.258Z,1015.4
2017-03-22T12:36:41.292Z,1015.34
2017-03-22T12:37:41.360Z,1015.37
2017-03-22T12:38:41.359Z,1015.37
2017-03-22T12:39:41.428Z,1015.36
2017-03-22T12:40:41.441Z,1015.35
2017-03-22T12:41:41.470Z,1015.31
2017-03-22T12:42:41.511Z,1015.27
2017-03-22T12:43:41.567Z,1015.32
2017-03-22T12:44:41.569Z,1015.31
2017-03-22T12:45:41.612Z,1015.34
2017-03-22T12:46:41.648Z,1015.3
2017-03-22T12:47:41.710Z,1015.26
2017-03-22T12:48:41.734Z,1015.33
2017-03-22T12:49:41.769Z,1015.3
2017-03-22T12:50:41.787Z,1015.35
2017-03-22T12:51:41.817Z,1015.39
2017-03-22T12:52:41.833Z,1015.4
2017-03-22T12:53:41.866Z,1015.36
2017-03-22T12:54:41.953Z,1015.4
2017-03-22T12:55:41.957Z,1015.41
2017-03-22T12:56:42.006Z,1015.43
2017-03-22T12:57:42.050Z,1015.41
2017-03-22T12:58:42.041Z,1015.38
2017-03-22T12:59:42.068Z,1015.38
2017-03-22T13:00:42.101Z,1015.42
2017-03-22T13:01:42.133Z,1015.39
2017-03-22T13:02:42.174Z,1015.37
2017-03-22T13:03:42.206Z,1015.37
2017-03-22T13:04:42.267Z,1015.33
2017-03-22T13:05:42.258Z,1015.38
2017-03-22T13:06:42.327Z,1015.38
2017-03-22T13:07:42.336Z,1015.39
2017-03-22T13:08:42.367Z,1015.39
2017-03-22T13:09:42.406Z,1015.47
2017-03-22T13:10:42.441Z,1015.44
2017-03-22T13:11:42.471Z,1015.45
2017-03-22T13:12:42.502Z,1015.47
2017-03-22T13:13:42.609Z,1015.46
2017-03-22T13:14:42.644Z,1015.5
2017-03-22T13:15:42.675Z,1015.43
2017-03-22T13:16:42.642Z,1015.38
2017-03-22T13:17:42.674Z,1015.43
2017-03-22T13:18:42.704Z,1015.37
2017-03-22T13:19:42.737Z,1015.39
2017-03-22T13:20:42.764Z,1015.34
2017-03-22T13:21:42.809Z,1015.36
2017-03-22T13:22:42.835Z,1015.4
2017-03-22T13:23:42.862Z,1015.32
2017-03-22T13:24:42.896Z,1015.38
2017-03-22T13:25:42.944Z,1015.35
2017-03-22T13:26:43.021Z,1015.3
2017-03-22T13:27:43.028Z,1015.27
2017-03-22T13:28:43.111Z,1015.33
2017-03-22T13:29:43.073Z,1015.37
2017-03-22T13:30:43.109Z,1015.34
2017-03-22T13:31:43.137Z,1015.37
2017-03-22T13:32:43.162Z,1015.39
2017-03-22T13:33:43.208Z,1015.37
2017-03-22T13:34:43.243Z,1015.35
2017-03-22T13:35:43.272Z,1015.37
2017-03-22T13:36:43.327Z,1015.34
2017-03-22T13:37:43.370Z,1015.32
2017-03-22T13:38:43.398Z,1015.3
2017-03-22T13:39:43.436Z,1015.3
2017-03-22T13:40:43.439Z,1015.32
2017-03-22T13:41:43.477Z,1015.34
2017-03-22T13:42:43.506Z,1015.3
2017-03-22T13:43:43.535Z,1015.33
2017-03-22T13:44:43.564Z,1015.28
2017-03-22T13:45:43.602Z,1015.3
2017-03-22T13:46:43.635Z,1015.34
2017-03-22T13:47:43.660Z,1015.28
2017-03-22T13:48:43.700Z,1015.27
2017-03-22T13:49:43.738Z,1015.29
2017-03-22T13:50:43.759Z,1015.25
2017-03-22T13:51:43.859Z,1015.28
2017-03-22T13:52:43.910Z,1015.31
2017-03-22T13:53:43.915Z,1015.27
2017-03-22T13:54:43.958Z,1015.21
2017-03-22T13:55:43.927Z,1015.22
2017-03-22T13:56:43.957Z,1015.21
2017-03-22T13:57:43.994Z,1015.19
2017-03-22T13:58:44.019Z,1015.19
2017-03-22T13:59:44.054Z,1015.2
2017-03-22T14:00:44.085Z,1015.18
2017-03-22T14:01:44.170Z,1015.15
2017-03-22T14:02:44.183Z,1015.19
2017-03-22T14:03:44.184Z,1015.16
2017-03-22T14:04:44.253Z,1015.11
2017-03-22T14:05:44.271Z,1015.13
2017-03-22T14:06:44.287Z,1015.13
2017-03-22T14:07:44.321Z,1015.12
2017-03-22T14:08:44.375Z,1015.13
2017-03-22T14:09:44.410Z,1015.12
2017-03-22T14:10:44.455Z,1015.17
2017-03-22T14:11:44.489Z,1015.15
2017-03-22T14:12:44.514Z,1015.19
2017-03-22T14:13:44.590Z,1015.21
2017-03-22T14:14:44.575Z,1015.2
2017-03-22T14:15:44.584Z,1015.21
2017-03-22T14:16:44.613Z,1015.22
2017-03-22T14:17:44.677Z,1015.27
2017-03-22T14:18:44.677Z,1015.2
2017-03-22T14:19:44.722Z,1015.15
2017-03-22T14:20:44.774Z,1015.12
2017-03-22T14:21:44.781Z,1015.1
2017-03-22T14:22:44.884Z,1015.16
2017-03-22T14:23:44.838Z,1015.12
2017-03-22T14:24:44.929Z,1015.09
2017-03-22T14:25:44.906Z,1015.13
2017-03-22T14:26:44.964Z,1015.12
2017-03-22T14:27:44.961Z,1015.16
2017-03-22T14:28:45.010Z,1015.2
2017-03-22T14:29:45.064Z,1015.16
2017-03-22T14:30:45.059Z,1015.13
2017-03-22T14:31:45.183Z,1015.14
2017-03-22T14:32:45.197Z,1015.17
2017-03-22T14:33:45.245Z,1015.1
2017-03-22T14:34:45.251Z,1015.12
2017-03-22T14:35:45.218Z,1015.11
2017-03-22T14:36:45.509Z,1015.06
2017-03-22T14:37:45.294Z,1015.14
2017-03-22T14:38:45.323Z,1015.08
2017-03-22T14:39:45.354Z,1015.12
2017-03-22T14:40:45.381Z,1015.09
2017-03-22T14:41:45.459Z,1015.14
2017-03-22T14:42:45.503Z,1015.08
2017-03-22T14:43:45.558Z,1015.11
2017-03-22T14:44:45.516Z,1015.14
2017-03-22T14:45:45.570Z,1015.13
2017-03-22T14:46:45.567Z,1015.07
2017-03-22T14:47:45.600Z,1015.08
2017-03-22T14:48:45.640Z,1015.1
2017-03-22T14:49:45.661Z,1015.1
2017-03-22T14:50:45.741Z,1015.09
2017-03-22T14:51:45.772Z,1015.08
2017-03-22T14:52:45.841Z,1015.05
2017-03-22T14:53:45.851Z,1015.14
2017-03-22T14:54:45.830Z,1015.14
2017-03-22T14:55:45.863Z,1015.13
2017-03-22T14:56:45.885Z,1015.14
2017-03-22T14:57:45.923Z,1015.11
2017-03-22T14:58:45.960Z,1015.14
2017-03-22T14:59:45.984Z,1015.11
2017-03-22T15:00:46.047Z,1015.06
2017-03-22T15:01:46.080Z,1015.11
2017-03-22T15:02:46.083Z,1015.04
2017-03-22T15:03:46.117Z,1015.05
2017-03-22T15:04:46.175Z,1015.04
2017-03-22T15:05:46.174Z,1015.08
2017-03-22T15:06:46.277Z,1015.02
2017-03-22T15:07:46.296Z,1015.05
2017-03-22T15:08:46.327Z,1015.11
2017-03-22T15:09:46.299Z,1015.06
2017-03-22T15:10:46.327Z,1015.1
2017-03-22T15:11:46.368Z,1015.1
2017-03-22T15:12:46.401Z,1015.13
2017-03-22T15:13:46.463Z,1015.07
2017-03-22T15:14:46.455Z,1015.08
2017-03-22T15:15:46.521Z,1015.09
2017-03-22T15:16:46.551Z,1015.09
2017-03-22T15:17:46.589Z,1015.1
2017-03-22T15:18:46.579Z,1015.11
2017-03-22T15:19:46.624Z,1015.03
2017-03-22T15:20:46.672Z,1015.09
2017-03-22T15:21:46.760Z,1015.1
2017-03-22T15:22:46.730Z,1015.03
2017-03-22T15:23:46.810Z,1015.01
2017-03-22T15:24:46.770Z,1015.05
2017-03-22T15:25:46.837Z,1015.03
2017-03-22T15:26:46.830Z,1015.06
2017-03-22T15:27:46.863Z,1015
2017-03-22T15:28:46.902Z,1015.03
2017-03-22T15:29:46.925Z,1015.03
2017-03-22T15:30:46.955Z,1014.96
2017-03-22T15:31:46.999Z,1014.99
2017-03-22T15:32:47.024Z,1015.01
2017-03-22T15:33:47.082Z,1015.03
2017-03-22T15:34:47.123Z,1014.99
2017-03-22T15:35:47.113Z,1015.03
2017-03-22T15:36:47.203Z,1015.03
2017-03-22T15:37:47.244Z,1015.04
2017-03-22T15:38:47.281Z,1015.1
2017-03-22T15:39:47.314Z,1015.1
2017-03-22T15:40:47.281Z,1015.1
2017-03-22T15:41:47.309Z,1015.1
2017-03-22T15:42:47.342Z,1015.09
2017-03-22T15:43:47.360Z,1015.04
2017-03-22T15:44:47.427Z,1015.07
2017-03-22T15:45:47.422Z,1015.15
2017-03-22T15:46:47.463Z,1015.06
2017-03-22T15:47:47.486Z,1015.09
2017-03-22T15:48:47.527Z,1015.1
2017-03-22T15:49:47.582Z,1015.06
2017-03-22T15:50:47.639Z,1015.07
2017-03-22T15:51:47.687Z,1015.08
2017-03-22T15:52:47.706Z,1015.06
2017-03-22T15:53:47.754Z,1015.07
2017-03-22T15:54:47.711Z,1015.04
2017-03-22T15:55:47.741Z,1015.09
2017-03-22T15:56:47.765Z,1015.05
2017-03-22T15:57:47.807Z,1015.01
2017-03-22T15:58:47.871Z,1015.03
2017-03-22T15:59:47.865Z,1015.06
2017-03-22T16:00:47.929Z,1015.11
2017-03-22T16:01:47.934Z,1015.07
2017-03-22T16:02:47.968Z,1015.1
2017-03-22T16:03:48.023Z,1015.1
2017-03-22T16:04:48.020Z,1015.14
2017-03-22T16:05:48.050Z,1015.13
2017-03-22T16:06:48.173Z,1015.15
2017-03-22T16:07:48.116Z,1015.11
2017-03-22T16:08:48.148Z,1015.16
2017-03-22T16:09:48.181Z,1015.15
2017-03-22T16:10:48.206Z,1015.18
2017-03-22T16:11:48.245Z,1015.18
2017-03-22T16:12:48.273Z,1015.19
2017-03-22T16:13:48.300Z,1015.2
2017-03-22T16:14:48.336Z,1015.15
2017-03-22T16:15:48.371Z,1015.13
2017-03-22T16:16:48.403Z,1015.17
2017-03-22T16:17:48.432Z,1015.27
2017-03-22T16:18:48.489Z,1015.17
2017-03-22T16:19:48.520Z,1015.16
2017-03-22T16:20:48.518Z,1015.19
2017-03-22T16:21:48.554Z,1015.2
2017-03-22T16:22:48.612Z,1015.21
2017-03-22T16:23:48.608Z,1015.22
2017-03-22T16:24:48.649Z,1015.22
2017-03-22T16:25:48.704Z,1015.24
2017-03-22T16:26:48.706Z,1015.25
2017-03-22T16:27:48.733Z,1015.24
2017-03-22T16:28:48.760Z,1015.28
2017-03-22T16:29:48.796Z,1015.25
2017-03-22T16:30:48.858Z,1015.34
2017-03-22T16:31:48.923Z,1015.33
2017-03-22T16:32:48.969Z,1015.34
2017-03-22T16:33:48.991Z,1015.34
2017-03-22T16:34:49.000Z,1015.36
2017-03-22T16:35:48.986Z,1015.37
2017-03-22T16:36:49.006Z,1015.43
2017-03-22T16:37:49.048Z,1015.39
2017-03-22T16:38:49.103Z,1015.43
2017-03-22T16:39:49.135Z,1015.41
2017-03-22T16:40:49.174Z,1015.4
2017-03-22T16:41:49.173Z,1015.41
2017-03-22T16:42:49.254Z,1015.42
2017-03-22T16:43:49.290Z,1015.39
2017-03-22T16:44:49.252Z,1015.39
2017-03-22T16:45:49.289Z,1015.38
2017-03-22T16:46:49.323Z,1015.38
2017-03-22T16:47:49.350Z,1015.38
2017-03-22T16:48:49.376Z,1015.43
2017-03-22T16:49:49.444Z,1015.42
2017-03-22T16:50:49.520Z,1015.42
2017-03-22T16:51:49.535Z,1015.43
2017-03-22T16:52:49.566Z,1015.51
2017-03-22T16:53:49.567Z,1015.49
2017-03-22T16:54:49.559Z,1015.44
2017-03-22T16:55:49.590Z,1015.45
2017-03-22T16:56:49.638Z,1015.49
2017-03-22T16:57:49.649Z,1015.46
2017-03-22T16:58:49.683Z,1015.49
2017-03-22T16:59:49.710Z,1015.48
2017-03-22T17:00:49.814Z,1015.49
2017-03-22T17:01:49.833Z,1015.53
2017-03-22T17:02:49.850Z,1015.45
2017-03-22T17:03:49.915Z,1015.49
2017-03-22T17:04:49.858Z,1015.52
2017-03-22T17:05:49.931Z,1015.53
2017-03-22T17:06:49.928Z,1015.55
2017-03-22T17:07:49.947Z,1015.59
2017-03-22T17:08:49.986Z,1015.54
2017-03-22T17:09:50.018Z,1015.55
2017-03-22T17:10:50.036Z,1015.57
2017-03-22T17:11:50.078Z,1015.59
2017-03-22T17:12:50.097Z,1015.6
2017-03-22T17:13:50.165Z,1015.56
2017-03-22T17:14:50.161Z,1015.56
2017-03-22T17:15:50.269Z,1015.61
2017-03-22T17:16:50.229Z,1015.62
2017-03-22T17:17:50.270Z,1015.6
2017-03-22T17:18:50.342Z,1015.61
2017-03-22T17:19:50.320Z,1015.59
2017-03-22T17:20:50.338Z,1015.61
2017-03-22T17:21:50.370Z,1015.58
2017-03-22T17:22:50.410Z,1015.56
2017-03-22T17:23:50.437Z,1015.55
2017-03-22T17:24:50.496Z,1015.55
2017-03-22T17:25:50.489Z,1015.55
2017-03-22T17:26:50.544Z,1015.59
2017-03-22T17:27:50.622Z,1015.58
2017-03-22T17:28:50.618Z,1015.62
2017-03-22T17:29:50.621Z,1015.64
2017-03-22T17:30:50.642Z,1015.7
2017-03-22T17:31:50.705Z,1015.63
2017-03-22T17:32:50.708Z,1015.66
2017-03-22T17:33:50.739Z,1015.68
2017-03-22T17:34:50.758Z,1015.71
2017-03-22T17:35:50.798Z,1015.7
2017-03-22T17:36:50.834Z,1015.7
2017-03-22T17:37:50.857Z,1015.73
2017-03-22T17:38:50.919Z,1015.66
2017-03-22T17:39:50.922Z,1015.76
2017-03-22T17:40:50.974Z,1015.7
2017-03-22T17:41:51.022Z,1015.77
2017-03-22T17:42:51.071Z,1015.77
2017-03-22T17:43:51.112Z,1015.74
2017-03-22T17:44:51.121Z,1015.75
2017-03-22T17:45:51.087Z,1015.74